Time;durP1;ratioP1;P1;durP2;ratioP2;P2;SDS_P1;SDS_P2;PMS_P1;PMS_P2;Temp;Humidity;BMP_temperature;BMP_pressure;BME280_temperature;BME280_humidity;BME280_pressure;Samples;Min_cycle;Max_cycle;Signal;HPM_P1;HPM_P2
2023/12/31 00:02:19;;;;;;;3.65;2.67;;;7.40;99.90;;;;;;5027810;28;20036;-52
2023/12/31 00:04:45;;;;;;;7.40;2.50;;;7.30;99.90;;;;;;5027302;28;20025;-52
2023/12/31 00:07:11;;;;;;;7.63;2.80;;;7.30;99.90;;;;;;5026143;28;20053;-53
2023/12/31 00:09:38;;;;;;;5.80;2.38;;;7.30;99.90;;;;;;5019426;28;20049;-52
2023/12/31 00:12:04;;;;;;;6.45;2.85;;;7.30;99.90;;;;;;5027009;28;20026;-52
2023/12/31 00:14:30;;;;;;;4.18;2.70;;;7.30;99.90;;;;;;5024035;28;20037;-52
2023/12/31 00:16:55;;;;;;;4.90;3.20;;;7.20;99.90;;;;;;5017728;28;20037;-53
2023/12/31 00:19:21;;;;;;;5.00;2.90;;;7.30;99.90;;;;;;5014654;28;20041;-51
2023/12/31 00:21:46;;;;;;;7.43;3.28;;;7.20;99.90;;;;;;5028481;28;20058;-52
2023/12/31 00:24:12;;;;;;;7.80;3.22;;;7.20;99.90;;;;;;5020272;28;20033;-53
2023/12/31 00:26:38;;;;;;;10.38;3.25;;;7.20;99.90;;;;;;5031322;28;20064;-52
2023/12/31 00:29:03;;;;;;;4.57;2.80;;;7.10;99.90;;;;;;5021091;28;20543;-53
2023/12/31 00:31:29;;;;;;;9.27;3.83;;;7.10;99.90;;;;;;5023712;28;20033;-53
2023/12/31 00:33:56;;;;;;;7.97;3.20;;;7.10;99.90;;;;;;5030887;28;20127;-53
2023/12/31 00:36:24;;;;;;;6.70;3.42;;;7.20;99.90;;;;;;5025589;28;20496;-54
2023/12/31 00:38:50;;;;;;;4.68;2.95;;;7.10;99.90;;;;;;5008655;28;20097;-52
2023/12/31 00:41:16;;;;;;;9.30;3.20;;;7.00;99.90;;;;;;5027612;28;20399;-52
2023/12/31 00:43:41;;;;;;;5.20;2.80;;;7.00;99.90;;;;;;5024277;28;20126;-53
2023/12/31 00:46:07;;;;;;;5.63;3.10;;;6.90;99.90;;;;;;5027450;28;20071;-54
2023/12/31 00:48:32;;;;;;;6.20;3.08;;;6.90;99.90;;;;;;5019409;28;20026;-52
2023/12/31 00:51:01;;;;;;;5.57;2.85;;;6.90;99.90;;;;;;5015103;28;20034;-51
2023/12/31 00:53:26;;;;;;;4.82;3.25;;;6.80;99.90;;;;;;5023227;28;20108;-50
2023/12/31 00:55:52;;;;;;;4.15;2.55;;;6.80;99.90;;;;;;5032315;28;20527;-54
2023/12/31 00:58:18;;;;;;;5.55;2.50;;;6.70;99.90;;;;;;5022650;28;20107;-50
2023/12/31 01:00:44;;;;;;;8.52;2.60;;;6.70;99.90;;;;;;5021466;28;20124;-50
2023/12/31 01:03:09;;;;;;;3.25;2.15;;;6.70;99.90;;;;;;5025036;28;20108;-51
2023/12/31 01:05:35;;;;;;;4.97;2.35;;;6.60;99.90;;;;;;5023077;28;20021;-56
2023/12/31 01:08:01;;;;;;;6.15;2.90;;;6.60;99.90;;;;;;5018047;28;20034;-56
2023/12/31 01:10:27;;;;;;;10.35;2.78;;;6.60;99.90;;;;;;5025817;28;20030;-55
2023/12/31 01:12:52;;;;;;;5.43;2.30;;;6.60;99.90;;;;;;5025622;28;20558;-54
2023/12/31 01:15:18;;;;;;;7.75;2.92;;;6.60;99.90;;;;;;5018355;28;20651;-54
2023/12/31 01:17:44;;;;;;;5.75;2.47;;;6.60;99.90;;;;;;5025108;28;20060;-56
2023/12/31 01:20:10;;;;;;;4.20;1.85;;;6.60;99.90;;;;;;5018848;28;20033;-54
2023/12/31 01:22:35;;;;;;;4.15;2.38;;;6.70;99.90;;;;;;5026236;28;20431;-54
2023/12/31 01:25:01;;;;;;;3.60;2.00;;;6.70;99.90;;;;;;5023762;28;20033;-52
2023/12/31 01:27:27;;;;;;;6.22;2.45;;;6.70;99.90;;;;;;5016681;28;20033;-53
2023/12/31 01:29:52;;;;;;;4.07;2.35;;;6.70;99.90;;;;;;5018027;28;20029;-53
2023/12/31 01:32:18;;;;;;;3.42;2.28;;;6.70;99.90;;;;;;5023040;28;20455;-52
2023/12/31 01:34:43;;;;;;;3.00;2.08;;;6.70;99.90;;;;;;5031208;28;20041;-51
2023/12/31 01:37:09;;;;;;;3.22;2.08;;;6.70;99.90;;;;;;5026571;28;20033;-51
2023/12/31 01:39:34;;;;;;;3.35;2.25;;;6.70;99.90;;;;;;5028930;28;20047;-51
2023/12/31 01:42:00;;;;;;;4.97;2.03;;;6.60;99.90;;;;;;5027101;28;20062;-54
2023/12/31 01:44:27;;;;;;;5.78;2.20;;;6.60;99.90;;;;;;5025320;28;20109;-54
2023/12/31 01:46:54;;;;;;;5.55;2.05;;;6.60;99.90;;;;;;5027824;28;20060;-54
2023/12/31 01:49:20;;;;;;;4.78;2.15;;;6.60;99.90;;;;;;5004617;28;20026;-52
2023/12/31 01:51:46;;;;;;;3.38;2.17;;;6.50;99.90;;;;;;5026047;28;20033;-55
2023/12/31 01:54:11;;;;;;;5.45;2.17;;;6.60;99.90;;;;;;5028897;28;20364;-54
2023/12/31 01:56:38;;;;;;;5.63;1.95;;;6.60;99.90;;;;;;5023635;28;20033;-52
2023/12/31 01:59:06;;;;;;;4.85;2.20;;;6.60;99.90;;;;;;5020303;28;20041;-53
2023/12/31 02:01:34;;;;;;;5.00;2.38;;;6.60;99.90;;;;;;5022608;28;20025;-55
2023/12/31 02:03:59;;;;;;;5.05;2.10;;;6.70;99.90;;;;;;5021469;28;20026;-54
2023/12/31 02:06:25;;;;;;;3.00;2.05;;;6.80;99.90;;;;;;5019981;28;20036;-56
2023/12/31 02:08:51;;;;;;;5.35;2.25;;;6.80;99.90;;;;;;5019023;28;20033;-57
2023/12/31 02:11:16;;;;;;;3.70;2.10;;;6.80;99.90;;;;;;5023839;28;20033;-53
2023/12/31 02:13:42;;;;;;;6.00;1.75;;;6.80;99.90;;;;;;5023183;28;20041;-57
2023/12/31 02:16:15;;;;;;;3.22;1.60;;;6.80;99.90;;;;;;5023108;28;20029;-55
2023/12/31 02:18:41;;;;;;;5.70;2.25;;;6.80;99.90;;;;;;5029459;28;20096;-55
2023/12/31 02:21:08;;;;;;;4.40;2.17;;;6.80;99.90;;;;;;5020968;28;20391;-54
2023/12/31 02:23:34;;;;;;;3.47;1.88;;;6.80;99.90;;;;;;5025551;28;20033;-56
2023/12/31 02:26:08;;;;;;;6.45;2.03;;;6.80;99.90;;;;;;5020470;28;20052;-55
2023/12/31 02:28:34;;;;;;;2.25;1.45;;;6.80;99.90;;;;;;5023065;28;20057;-56
2023/12/31 02:31:00;;;;;;;3.17;1.98;;;6.80;99.90;;;;;;4995189;28;20033;-53
2023/12/31 02:33:25;;;;;;;4.43;1.77;;;6.80;99.90;;;;;;5023871;28;20088;-50
2023/12/31 02:35:52;;;;;;;7.20;1.98;;;6.80;99.90;;;;;;5019953;28;20369;-53
2023/12/31 02:38:17;;;;;;;5.20;1.60;;;6.90;99.90;;;;;;5026247;28;20034;-54
2023/12/31 02:40:43;;;;;;;6.15;1.88;;;6.90;99.90;;;;;;5019264;28;20386;-52
2023/12/31 02:43:09;;;;;;;2.72;1.80;;;6.90;99.90;;;;;;5022317;28;20080;-54
2023/12/31 02:45:35;;;;;;;3.00;1.80;;;6.90;99.90;;;;;;5029995;28;20021;-53
2023/12/31 02:48:00;;;;;;;4.70;2.42;;;6.90;99.90;;;;;;5028079;28;20048;-56
2023/12/31 02:50:26;;;;;;;7.28;1.83;;;6.90;99.90;;;;;;5018189;28;20090;-51
2023/12/31 02:52:53;;;;;;;3.35;1.90;;;7.00;99.90;;;;;;5029600;28;20068;-54
2023/12/31 02:55:19;;;;;;;3.75;1.70;;;7.00;99.90;;;;;;5021670;28;20033;-54
2023/12/31 02:57:45;;;;;;;5.35;1.80;;;7.00;99.90;;;;;;5025163;28;20044;-56
2023/12/31 03:00:11;;;;;;;5.57;1.95;;;7.00;99.90;;;;;;5018755;28;20443;-52
2023/12/31 03:02:37;;;;;;;4.68;1.60;;;7.00;99.90;;;;;;5022535;28;20040;-52
2023/12/31 03:05:03;;;;;;;2.88;1.73;;;7.00;99.90;;;;;;5020973;28;20030;-52
2023/12/31 03:07:28;;;;;;;2.95;2.05;;;7.10;99.90;;;;;;5027286;28;20026;-53
2023/12/31 03:09:54;;;;;;;3.15;1.50;;;7.10;99.90;;;;;;5021182;28;20112;-53
2023/12/31 03:12:19;;;;;;;1.95;1.38;;;7.10;99.90;;;;;;5024611;28;20030;-55
2023/12/31 03:14:45;;;;;;;4.20;1.20;;;7.10;99.90;;;;;;5024667;28;20029;-55
2023/12/31 03:17:10;;;;;;;2.03;1.40;;;7.20;99.90;;;;;;5024325;28;20120;-53
2023/12/31 03:19:36;;;;;;;7.72;1.80;;;7.20;99.90;;;;;;5027763;28;20075;-55
2023/12/31 03:22:02;;;;;;;2.55;1.70;;;7.20;99.90;;;;;;5024372;28;20368;-55
2023/12/31 03:24:28;;;;;;;2.85;1.70;;;7.20;99.90;;;;;;5026273;28;20021;-54
2023/12/31 03:26:54;;;;;;;1.50;1.30;;;7.20;99.90;;;;;;5021751;28;20032;-53
2023/12/31 03:29:19;;;;;;;2.85;1.60;;;7.20;99.90;;;;;;5026187;28;20029;-50
2023/12/31 03:31:45;;;;;;;5.32;1.70;;;7.20;99.90;;;;;;5028089;28;20044;-54
2023/12/31 03:34:10;;;;;;;5.88;2.10;;;7.20;99.90;;;;;;5023532;28;20065;-52
2023/12/31 03:36:36;;;;;;;1.98;1.40;;;7.20;99.90;;;;;;5021971;28;20746;-51
2023/12/31 03:39:02;;;;;;;3.20;1.42;;;7.20;99.90;;;;;;5029290;28;20084;-50
2023/12/31 03:41:28;;;;;;;3.47;1.85;;;7.20;99.90;;;;;;5028820;28;20369;-50
2023/12/31 03:43:54;;;;;;;3.67;1.55;;;7.20;99.90;;;;;;5025488;28;20053;-54
2023/12/31 03:46:20;;;;;;;6.03;1.50;;;7.10;99.90;;;;;;5021785;28;20025;-55
2023/12/31 03:48:46;;;;;;;2.45;1.40;;;7.10;99.90;;;;;;5019354;28;20029;-54
2023/12/31 03:51:12;;;;;;;4.28;1.40;;;7.20;99.90;;;;;;5017830;28;20018;-52
2023/12/31 03:53:38;;;;;;;3.13;1.38;;;7.20;99.90;;;;;;5026280;28;20140;-55
2023/12/31 03:56:04;;;;;;;2.00;1.23;;;7.20;99.90;;;;;;5023465;28;20495;-56
2023/12/31 03:58:29;;;;;;;3.17;1.30;;;7.20;99.90;;;;;;5024103;28;20025;-50
2023/12/31 04:00:55;;;;;;;3.83;1.85;;;7.30;99.90;;;;;;5030269;28;20026;-50
2023/12/31 04:03:20;;;;;;;1.33;1.00;;;7.30;99.90;;;;;;5022783;28;20055;-51
2023/12/31 04:05:46;;;;;;;1.42;0.80;;;7.30;99.90;;;;;;5022360;28;20053;-56
2023/12/31 04:08:11;;;;;;;5.07;1.60;;;7.30;99.90;;;;;;5019450;28;20036;-56
2023/12/31 04:10:37;;;;;;;5.85;2.08;;;7.30;99.90;;;;;;5025790;28;20026;-50
2023/12/31 04:13:03;;;;;;;2.65;1.10;;;7.30;99.90;;;;;;5029913;28;20175;-51
2023/12/31 04:15:28;;;;;;;2.13;1.42;;;7.40;99.90;;;;;;5031096;28;20029;-55
2023/12/31 04:17:56;;;;;;;2.13;1.10;;;7.50;99.90;;;;;;5018103;28;20034;-53
2023/12/31 04:20:21;;;;;;;3.83;1.17;;;7.50;99.90;;;;;;5027140;28;20025;-51
2023/12/31 04:22:47;;;;;;;2.83;1.20;;;7.50;99.90;;;;;;5022444;28;20025;-55
2023/12/31 04:25:12;;;;;;;2.30;1.00;;;7.50;99.90;;;;;;5027089;28;20375;-54
2023/12/31 04:27:40;;;;;;;2.65;1.42;;;7.50;99.90;;;;;;5023156;28;20029;-54
2023/12/31 04:30:09;;;;;;;1.33;0.85;;;7.60;99.90;;;;;;5024276;28;20040;-55
2023/12/31 04:32:35;;;;;;;2.08;1.20;;;7.60;99.90;;;;;;5027770;28;20030;-55
2023/12/31 04:35:00;;;;;;;9.23;1.17;;;7.60;99.90;;;;;;5030737;28;20032;-53
2023/12/31 04:37:26;;;;;;;2.70;1.25;;;7.60;99.90;;;;;;5022968;28;20112;-52
2023/12/31 04:39:52;;;;;;;3.50;1.25;;;7.70;99.90;;;;;;5019469;28;20029;-54
2023/12/31 04:42:18;;;;;;;1.52;1.25;;;7.70;99.90;;;;;;5026399;28;20023;-52
2023/12/31 04:44:44;;;;;;;3.97;1.40;;;7.70;99.90;;;;;;5016415;28;20056;-51
2023/12/31 04:47:09;;;;;;;2.30;1.15;;;7.80;99.90;;;;;;5029583;28;20021;-53
2023/12/31 04:49:35;;;;;;;5.40;1.20;;;7.70;99.90;;;;;;5028148;28;20048;-51
2023/12/31 04:52:00;;;;;;;2.08;1.45;;;7.70;99.90;;;;;;5023195;28;20033;-51
2023/12/31 04:54:26;;;;;;;5.72;1.30;;;7.70;99.90;;;;;;5023631;28;20061;-52
2023/12/31 04:56:51;;;;;;;2.45;1.27;;;7.70;99.90;;;;;;5021040;28;20033;-56
2023/12/31 04:59:17;;;;;;;1.75;1.25;;;7.70;99.90;;;;;;5029500;28;20043;-54
2023/12/31 05:01:43;;;;;;;2.13;1.00;;;7.70;99.90;;;;;;5025155;28;20433;-53
2023/12/31 05:04:08;;;;;;;1.95;0.98;;;7.70;99.90;;;;;;5014442;28;20053;-53
2023/12/31 05:06:34;;;;;;;1.45;0.85;;;7.70;99.90;;;;;;5017181;28;20026;-55
2023/12/31 05:08:59;;;;;;;1.88;1.05;;;7.80;99.90;;;;;;5024206;28;20492;-52
2023/12/31 05:11:26;;;;;;;2.53;1.23;;;7.70;99.90;;;;;;5017878;28;20033;-54
2023/12/31 05:13:52;;;;;;;8.38;1.20;;;7.80;99.90;;;;;;5023864;28;20038;-52
2023/12/31 05:16:17;;;;;;;2.33;0.93;;;7.80;99.90;;;;;;5026666;28;20156;-51
2023/12/31 05:18:53;;;;;;;1.90;1.05;;;7.80;99.90;;;;;;5019724;28;20038;-54
2023/12/31 05:21:19;;;;;;;5.68;1.35;;;7.80;99.90;;;;;;5023755;28;20025;-51
2023/12/31 05:23:45;;;;;;;1.75;1.15;;;7.80;99.90;;;;;;5022257;28;20026;-51
2023/12/31 05:26:11;;;;;;;1.33;1.00;;;7.80;99.90;;;;;;5026310;28;20172;-52
2023/12/31 05:28:37;;;;;;;1.85;1.17;;;7.80;99.90;;;;;;5023910;28;20483;-54
2023/12/31 05:31:03;;;;;;;2.05;1.17;;;7.90;99.90;;;;;;5026427;28;20029;-51
2023/12/31 05:33:28;;;;;;;1.45;0.90;;;7.90;99.90;;;;;;5016989;28;20504;-52
2023/12/31 05:35:54;;;;;;;4.43;1.10;;;7.90;99.90;;;;;;5023984;28;20053;-56
2023/12/31 05:38:19;;;;;;;1.58;0.90;;;8.00;99.90;;;;;;5022866;28;20493;-51
2023/12/31 05:40:45;;;;;;;1.60;1.00;;;8.00;99.90;;;;;;5028654;28;20079;-56
2023/12/31 05:43:11;;;;;;;3.08;1.15;;;7.90;99.90;;;;;;5025163;28;20404;-55
2023/12/31 05:45:37;;;;;;;7.10;1.42;;;7.90;99.90;;;;;;5023488;28;20021;-54
2023/12/31 05:48:03;;;;;;;2.25;1.08;;;7.90;99.90;;;;;;5019968;28;20040;-55
2023/12/31 05:50:28;;;;;;;4.60;1.25;;;7.90;99.90;;;;;;5019852;28;20038;-54
2023/12/31 05:52:54;;;;;;;1.50;1.00;;;7.90;99.90;;;;;;5018810;28;20033;-54
2023/12/31 05:55:19;;;;;;;2.10;1.05;;;7.90;99.90;;;;;;5029588;28;20033;-51
2023/12/31 05:57:45;;;;;;;2.30;1.08;;;7.90;99.90;;;;;;5025162;28;20057;-53
2023/12/31 06:00:11;;;;;;;3.60;0.90;;;7.90;99.90;;;;;;5003734;28;20033;-53
2023/12/31 06:02:38;;;;;;;3.17;1.42;;;7.90;99.90;;;;;;5023460;28;20110;-54
2023/12/31 06:05:04;;;;;;;4.13;1.10;;;7.80;99.90;;;;;;5011922;28;20049;-54
2023/12/31 06:07:29;;;;;;;2.00;0.85;;;7.80;99.90;;;;;;5020709;28;20026;-51
2023/12/31 06:09:55;;;;;;;3.85;1.35;;;7.80;99.90;;;;;;5023745;28;20480;-57
2023/12/31 06:12:21;;;;;;;2.40;1.17;;;7.80;99.90;;;;;;5024112;28;20524;-51
2023/12/31 06:14:46;;;;;;;1.35;0.70;;;7.90;99.90;;;;;;5019441;28;20022;-54
2023/12/31 06:17:12;;;;;;;4.35;1.20;;;7.90;99.90;;;;;;5018640;28;20758;-52
2023/12/31 06:19:37;;;;;;;9.93;1.27;;;7.90;99.90;;;;;;5019695;28;20033;-51
2023/12/31 06:22:03;;;;;;;3.03;0.82;;;7.90;99.90;;;;;;5022685;28;20039;-54
2023/12/31 06:24:28;;;;;;;2.25;1.15;;;7.90;99.90;;;;;;5021405;28;20076;-53
2023/12/31 06:26:54;;;;;;;1.25;0.85;;;7.90;99.90;;;;;;5026499;28;20408;-54
2023/12/31 06:29:20;;;;;;;2.47;1.02;;;8.00;99.90;;;;;;5021661;28;20055;-51
2023/12/31 06:31:45;;;;;;;1.88;0.85;;;8.00;99.90;;;;;;5020890;28;20076;-50
2023/12/31 06:34:11;;;;;;;2.20;0.90;;;8.00;99.90;;;;;;5020263;28;20044;-53
2023/12/31 06:36:37;;;;;;;1.98;1.00;;;8.00;99.90;;;;;;5017045;28;20123;-51
2023/12/31 06:39:03;;;;;;;1.63;0.77;;;8.10;99.90;;;;;;5019475;28;20587;-54
2023/12/31 06:41:29;;;;;;;2.15;1.40;;;8.10;99.90;;;;;;5023927;28;20021;-52
2023/12/31 06:43:55;;;;;;;1.05;0.70;;;8.20;99.90;;;;;;5023157;28;20024;-54
2023/12/31 06:46:20;;;;;;;2.58;0.90;;;8.20;99.90;;;;;;5027040;28;20093;-53
2023/12/31 06:48:46;;;;;;;1.85;0.80;;;8.20;99.90;;;;;;5022381;28;20055;-54
2023/12/31 06:51:12;;;;;;;1.92;1.38;;;8.20;99.90;;;;;;5016647;28;20201;-57
2023/12/31 06:53:38;;;;;;;2.17;1.23;;;8.20;99.90;;;;;;5023018;28;20392;-52
2023/12/31 06:56:07;;;;;;;2.47;0.95;;;8.20;99.90;;;;;;5022349;28;20049;-55
2023/12/31 06:58:35;;;;;;;1.45;0.95;;;8.20;99.90;;;;;;5018523;28;20555;-53
2023/12/31 07:01:02;;;;;;;2.95;1.33;;;8.20;99.90;;;;;;5023544;28;20026;-53
2023/12/31 07:03:28;;;;;;;1.88;1.15;;;8.20;99.90;;;;;;5017740;28;20506;-56
2023/12/31 07:05:53;;;;;;;2.45;1.00;;;8.20;99.90;;;;;;5021457;28;20033;-52
2023/12/31 07:08:19;;;;;;;1.75;1.20;;;8.20;99.90;;;;;;5025530;28;20414;-57
2023/12/31 07:10:45;;;;;;;3.85;1.30;;;8.20;99.90;;;;;;5024568;28;20029;-55
2023/12/31 07:13:10;;;;;;;1.95;0.82;;;8.10;99.90;;;;;;5017817;28;20029;-54
2023/12/31 07:15:36;;;;;;;4.95;1.05;;;8.10;99.90;;;;;;5022238;28;20029;-55
2023/12/31 07:18:02;;;;;;;1.38;1.00;;;8.10;99.90;;;;;;5023973;28;20087;-55
2023/12/31 07:20:28;;;;;;;1.83;0.93;;;8.10;99.90;;;;;;5024936;28;20033;-56
2023/12/31 07:22:54;;;;;;;2.25;1.20;;;8.10;99.90;;;;;;5018852;28;20135;-54
2023/12/31 07:25:21;;;;;;;3.83;1.83;;;8.10;99.90;;;;;;5022260;28;20021;-55
2023/12/31 07:27:47;;;;;;;2.72;1.15;;;8.10;99.90;;;;;;5027169;28;20045;-56
2023/12/31 07:30:13;;;;;;;3.13;1.20;;;8.10;99.90;;;;;;5024447;28;20033;-53
2023/12/31 07:32:38;;;;;;;2.33;1.27;;;8.10;99.90;;;;;;5027915;28;20022;-55
2023/12/31 07:35:05;;;;;;;2.95;1.55;;;8.10;99.90;;;;;;5020098;28;20028;-56
2023/12/31 07:37:31;;;;;;;2.88;1.95;;;8.10;99.90;;;;;;5012705;28;20034;-53
2023/12/31 07:39:57;;;;;;;2.53;1.20;;;8.00;99.90;;;;;;5023722;28;20037;-54
2023/12/31 07:42:23;;;;;;;4.95;1.45;;;8.00;99.90;;;;;;5018811;28;20025;-56
2023/12/31 07:44:49;;;;;;;2.10;1.10;;;8.00;99.90;;;;;;5020551;28;20076;-55
2023/12/31 07:47:15;;;;;;;2.72;1.08;;;8.00;99.90;;;;;;5014731;28;20108;-56
2023/12/31 07:49:40;;;;;;;2.00;1.30;;;8.00;99.90;;;;;;5012547;28;20605;-56
2023/12/31 07:52:06;;;;;;;3.92;1.15;;;8.00;99.90;;;;;;5013218;28;20038;-57
2023/12/31 07:54:31;;;;;;;4.63;1.92;;;7.90;99.90;;;;;;5021373;28;20051;-56
2023/12/31 07:56:58;;;;;;;6.57;1.30;;;7.90;99.90;;;;;;5025055;28;20030;-56
2023/12/31 07:59:24;;;;;;;2.92;1.20;;;7.90;99.90;;;;;;5019712;28;20034;-54
2023/12/31 08:01:49;;;;;;;2.17;1.42;;;7.90;99.90;;;;;;5025350;28;20030;-55
2023/12/31 08:04:15;;;;;;;2.50;1.27;;;7.90;99.90;;;;;;5026642;28;20463;-54
2023/12/31 08:06:40;;;;;;;2.00;1.40;;;7.90;99.90;;;;;;5018801;28;20061;-53
2023/12/31 08:09:06;;;;;;;4.47;1.17;;;7.90;99.90;;;;;;5021421;28;20113;-53
2023/12/31 08:11:32;;;;;;;3.20;1.30;;;7.90;99.90;;;;;;5017650;28;20040;-55
2023/12/31 08:13:57;;;;;;;2.92;1.20;;;8.00;99.90;;;;;;5026986;28;20025;-55
2023/12/31 08:16:23;;;;;;;2.53;1.55;;;8.00;99.90;;;;;;5026201;28;20088;-53
2023/12/31 08:18:48;;;;;;;2.72;1.20;;;8.00;99.90;;;;;;5017624;28;20044;-56
2023/12/31 08:21:14;;;;;;;3.92;1.08;;;8.10;99.90;;;;;;5017221;28;20029;-53
2023/12/31 08:23:40;;;;;;;2.80;1.50;;;8.10;99.90;;;;;;5018648;28;20037;-57
2023/12/31 08:26:05;;;;;;;2.38;1.73;;;8.10;99.90;;;;;;5021771;28;20067;-55
2023/12/31 08:28:31;;;;;;;3.17;1.98;;;8.20;99.90;;;;;;5018487;28;20395;-57
2023/12/31 08:30:56;;;;;;;3.78;1.80;;;8.20;99.90;;;;;;5022096;28;20038;-57
2023/12/31 08:33:22;;;;;;;3.53;1.50;;;8.20;99.90;;;;;;5012545;28;20431;-53
2023/12/31 08:35:48;;;;;;;3.05;1.42;;;8.20;99.90;;;;;;5024264;28;20037;-52
2023/12/31 08:38:14;;;;;;;4.07;1.50;;;8.30;99.90;;;;;;5015082;28;20025;-55
2023/12/31 08:40:40;;;;;;;2.80;1.40;;;8.30;99.90;;;;;;5017025;28;20026;-57
2023/12/31 08:43:05;;;;;;;3.00;1.42;;;8.40;99.90;;;;;;5016077;28;20494;-55
2023/12/31 08:45:34;;;;;;;6.07;2.13;;;8.40;99.90;;;;;;5023567;28;20109;-53
2023/12/31 08:47:59;;;;;;;4.95;1.88;;;8.50;99.90;;;;;;5024759;28;20100;-54
2023/12/31 08:50:25;;;;;;;2.55;1.60;;;8.60;99.90;;;;;;5016339;28;20096;-54
2023/12/31 08:52:51;;;;;;;7.88;2.92;;;8.70;99.90;;;;;;5018690;28;20114;-53
2023/12/31 08:55:16;;;;;;;9.07;2.33;;;8.70;99.90;;;;;;5028472;28;20065;-54
2023/12/31 08:57:47;;;;;;;3.72;2.35;;;8.80;99.90;;;;;;5024614;28;20037;-56
2023/12/31 09:00:13;;;;;;;3.08;1.77;;;8.90;99.90;;;;;;5028523;28;20038;-55
2023/12/31 09:02:39;;;;;;;4.80;2.35;;;9.00;99.90;;;;;;5015350;28;20037;-54
2023/12/31 09:05:05;;;;;;;5.03;2.55;;;9.00;99.90;;;;;;5022924;28;20401;-53
2023/12/31 09:07:34;;;;;;;5.78;1.83;;;9.10;99.90;;;;;;5022171;28;20034;-55
2023/12/31 09:10:02;;;;;;;3.95;2.13;;;9.10;99.90;;;;;;5022161;28;20018;-55
2023/12/31 09:12:28;;;;;;;5.82;2.10;;;9.10;99.90;;;;;;5020603;28;20045;-53
2023/12/31 09:14:53;;;;;;;2.55;1.60;;;9.20;99.90;;;;;;5029740;28;20038;-55
2023/12/31 09:17:19;;;;;;;3.50;1.50;;;9.20;99.90;;;;;;5022851;28;20034;-56
2023/12/31 09:19:44;;;;;;;3.35;1.75;;;9.20;99.90;;;;;;5018142;28;20048;-56
2023/12/31 09:22:10;;;;;;;6.82;1.95;;;9.20;99.90;;;;;;5012533;28;20029;-53
2023/12/31 09:24:36;;;;;;;4.53;2.05;;;9.20;99.90;;;;;;5017609;28;20495;-56
2023/12/31 09:27:02;;;;;;;5.72;2.00;;;9.30;99.90;;;;;;5022103;28;20141;-56
2023/12/31 09:29:27;;;;;;;3.38;1.83;;;9.30;99.90;;;;;;5027250;28;20383;-57
2023/12/31 09:31:53;;;;;;;3.10;1.70;;;9.40;99.90;;;;;;5016448;28;20044;-57
2023/12/31 09:34:18;;;;;;;6.28;2.22;;;9.40;99.90;;;;;;5024904;28;20132;-55
2023/12/31 09:36:45;;;;;;;2.60;1.60;;;9.60;99.90;;;;;;5028260;28;20088;-56
2023/12/31 09:39:11;;;;;;;6.13;2.15;;;9.70;99.90;;;;;;5024246;28;20029;-56
2023/12/31 09:41:38;;;;;;;3.75;2.15;;;9.70;99.90;;;;;;5023876;28;20025;-54
2023/12/31 09:44:04;;;;;;;4.43;2.10;;;9.70;99.90;;;;;;5016155;28;20094;-57
2023/12/31 09:46:35;;;;;;;4.07;2.00;;;9.80;99.90;;;;;;5025649;28;20112;-56
2023/12/31 09:49:02;;;;;;;5.15;3.25;;;9.80;99.90;;;;;;5026527;28;20028;-57
2023/12/31 09:51:29;;;;;;;4.65;2.63;;;9.80;99.90;;;;;;5019313;28;20089;-54
2023/12/31 09:53:56;;;;;;;8.50;4.03;;;9.80;99.90;;;;;;5013769;28;20026;-55
2023/12/31 09:56:22;;;;;;;7.80;3.70;;;9.80;99.90;;;;;;5017465;28;20072;-56
2023/12/31 09:58:51;;;;;;;5.10;2.83;;;9.80;99.90;;;;;;5012585;28;20018;-54
2023/12/31 10:01:17;;;;;;;6.60;3.55;;;9.70;99.90;;;;;;5020156;28;20430;-56
2023/12/31 10:03:45;;;;;;;8.98;3.20;;;9.70;99.90;;;;;;5021983;28;20056;-56
2023/12/31 10:06:11;;;;;;;5.88;3.20;;;9.80;99.90;;;;;;5016644;28;20029;-57
2023/12/31 10:08:39;;;;;;;6.60;3.97;;;9.80;99.90;;;;;;5030840;28;20025;-56
2023/12/31 10:11:06;;;;;;;7.18;3.92;;;9.90;99.90;;;;;;5027141;28;20030;-56
2023/12/31 10:13:31;;;;;;;9.35;3.45;;;10.00;99.90;;;;;;5025074;28;20029;-55
2023/12/31 10:15:57;;;;;;;12.45;6.93;;;10.00;99.90;;;;;;5026806;28;20049;-53
2023/12/31 10:18:25;;;;;;;4.47;2.80;;;10.00;99.90;;;;;;5022777;28;20037;-57
2023/12/31 10:20:52;;;;;;;7.63;3.75;;;10.00;99.90;;;;;;5029005;28;20033;-55
2023/12/31 10:23:18;;;;;;;3.53;1.95;;;10.00;99.90;;;;;;5022548;28;20072;-53
2023/12/31 10:25:44;;;;;;;8.63;3.13;;;9.90;99.90;;;;;;5012169;28;20086;-53
2023/12/31 10:28:09;;;;;;;5.75;3.13;;;9.80;99.90;;;;;;5019168;28;20029;-57
2023/12/31 10:30:41;;;;;;;5.88;3.17;;;9.80;99.90;;;;;;5026982;28;20052;-57
2023/12/31 10:33:13;;;;;;;7.00;2.53;;;9.70;99.90;;;;;;5014874;28;20176;-54
2023/12/31 10:35:39;;;;;;;5.65;2.60;;;9.70;99.90;;;;;;5013802;28;20029;-54
2023/12/31 10:38:05;;;;;;;6.30;2.60;;;9.70;99.90;;;;;;5011430;28;20030;-56
2023/12/31 10:40:35;;;;;;;7.20;2.60;;;9.80;99.90;;;;;;5020445;28;20036;-56
2023/12/31 10:43:07;;;;;;;5.60;2.65;;;9.80;99.90;;;;;;5017001;28;20487;-57
2023/12/31 10:45:33;;;;;;;6.32;3.88;;;9.80;99.90;;;;;;5022435;28;20026;-55
2023/12/31 10:48:06;;;;;;;11.10;4.90;;;9.90;99.90;;;;;;5019077;28;20109;-56
2023/12/31 10:50:36;;;;;;;13.27;6.73;;;9.90;99.90;;;;;;5013874;28;20488;-55
2023/12/31 10:53:04;;;;;;;23.33;10.65;;;9.90;99.90;;;;;;5013101;28;20109;-57
2023/12/31 10:55:33;;;;;;;15.18;6.82;;;9.90;99.90;;;;;;5028442;28;20116;-54
2023/12/31 10:57:58;;;;;;;8.32;3.72;;;9.90;99.90;;;;;;5019147;28;20032;-57
2023/12/31 11:00:24;;;;;;;12.65;4.22;;;9.90;99.90;;;;;;5015492;28;20037;-57
2023/12/31 11:02:50;;;;;;;15.27;6.22;;;9.90;99.90;;;;;;5010228;28;20400;-54
2023/12/31 11:05:17;;;;;;;29.52;9.85;;;9.90;99.90;;;;;;5024315;28;20535;-54
2023/12/31 11:07:45;;;;;;;63.47;19.38;;;10.00;99.90;;;;;;5019372;28;20109;-55
2023/12/31 11:10:12;;;;;;;26.25;9.52;;;10.00;99.90;;;;;;5015684;28;20033;-57
2023/12/31 11:12:39;;;;;;;25.92;8.02;;;9.90;99.90;;;;;;5026422;28;20061;-54
2023/12/31 11:15:17;;;;;;;15.20;5.45;;;9.90;99.90;;;;;;5025599;28;20037;-56
2023/12/31 11:18:11;;;;;;;8.32;3.22;;;9.90;99.90;;;;;;5015051;28;20021;-56
2023/12/31 11:20:55;;;;;;;6.22;3.50;;;9.80;99.90;;;;;;5025059;28;20063;-55
2023/12/31 11:23:45;;;;;;;5.43;1.85;;;9.80;99.90;;;;;;5027290;28;20032;-54
2023/12/31 11:26:12;;;;;;;6.18;2.42;;;9.80;99.90;;;;;;5012129;28;20022;-54
2023/12/31 11:28:47;;;;;;;10.07;4.35;;;9.80;99.90;;;;;;5016220;28;20038;-56
2023/12/31 11:31:13;;;;;;;8.02;1.85;;;9.80;99.90;;;;;;5019319;28;20042;-54
2023/12/31 11:33:40;;;;;;;3.30;1.48;;;9.80;99.90;;;;;;5013171;28;20152;-56
2023/12/31 11:36:11;;;;;;;5.28;1.58;;;9.80;99.90;;;;;;5017774;28;20032;-54
2023/12/31 11:38:53;;;;;;;10.45;4.05;;;9.80;99.90;;;;;;5016053;28;20369;-56
2023/12/31 11:41:19;;;;;;;2.88;0.70;;;9.70;99.90;;;;;;5023561;28;21599;-55
2023/12/31 11:43:45;;;;;;;3.45;1.85;;;9.70;99.90;;;;;;5014587;28;20034;-54
2023/12/31 11:46:40;;;;;;;3.08;1.92;;;9.70;99.90;;;;;;5027936;28;20543;-56
2023/12/31 11:49:07;;;;;;;5.63;2.03;;;9.70;99.90;;;;;;5015999;28;20538;-55
2023/12/31 11:52:11;;;;;;;0.98;0.75;;;9.70;99.90;;;;;;5018380;28;20515;-56
2023/12/31 11:54:38;;;;;;;2.22;0.85;;;9.60;99.90;;;;;;4978825;28;20590;-55
2023/12/31 11:57:05;;;;;;;3.20;0.52;;;9.60;99.90;;;;;;4984574;28;20512;-55
2023/12/31 11:59:34;;;;;;;26.23;10.32;;;9.60;99.90;;;;;;5006396;28;20037;-56
2023/12/31 12:02:03;;;;;;;13.50;4.72;;;9.60;99.90;;;;;;5021503;28;20033;-55
2023/12/31 12:04:29;;;;;;;28.10;8.95;;;9.60;99.90;;;;;;5024791;28;20398;-56
2023/12/31 12:06:55;;;;;;;33.05;10.45;;;9.60;99.90;;;;;;5023417;28;20388;-57
2023/12/31 12:09:26;;;;;;;23.50;8.30;;;9.60;99.90;;;;;;5010411;28;20101;-54
2023/12/31 12:11:52;;;;;;;23.73;8.93;;;9.60;99.90;;;;;;5020199;28;20033;-56
2023/12/31 12:14:17;;;;;;;28.38;9.45;;;9.60;99.90;;;;;;5016273;28;20034;-55
2023/12/31 12:16:44;;;;;;;13.98;5.30;;;9.70;99.90;;;;;;5021831;28;20088;-54
2023/12/31 12:19:10;;;;;;;9.80;4.40;;;9.70;99.90;;;;;;5017342;28;20026;-53
2023/12/31 12:21:37;;;;;;;10.15;5.03;;;9.70;99.90;;;;;;5026395;28;20048;-55
2023/12/31 12:24:04;;;;;;;7.25;3.35;;;9.80;99.90;;;;;;5027645;28;20547;-53
2023/12/31 12:26:30;;;;;;;3.63;1.88;;;9.70;99.90;;;;;;4998885;28;20022;-56
2023/12/31 12:28:56;;;;;;;4.00;2.28;;;9.70;99.90;;;;;;5018516;28;20099;-55
2023/12/31 12:31:22;;;;;;;3.95;2.05;;;9.70;99.90;;;;;;5022325;28;20048;-54
2023/12/31 12:33:56;;;;;;;2.95;1.20;;;9.80;99.90;;;;;;5024533;28;20107;-57
2023/12/31 12:36:23;;;;;;;9.70;3.47;;;9.70;99.90;;;;;;5030720;28;20037;-56
2023/12/31 12:38:48;;;;;;;5.80;2.28;;;9.70;99.90;;;;;;5023270;28;20403;-56
2023/12/31 12:41:23;;;;;;;4.47;1.70;;;9.70;99.90;;;;;;5027263;28;20038;-54
2023/12/31 12:44:06;;;;;;;5.13;2.05;;;9.60;99.90;;;;;;5014657;28;20018;-55
2023/12/31 12:46:33;;;;;;;6.80;1.88;;;9.60;99.90;;;;;;5028087;28;20029;-56
2023/12/31 12:48:59;;;;;;;7.10;1.63;;;9.60;99.90;;;;;;5028125;28;20067;-55
2023/12/31 12:51:25;;;;;;;2.55;1.05;;;9.60;99.90;;;;;;5019057;28;20491;-53
2023/12/31 12:53:53;;;;;;;3.72;1.70;;;9.50;99.90;;;;;;5024792;28;20026;-55